createdAt,value
2017-09-20T00:00:00.069Z,18.60
2017-09-20T00:02:27.573Z,19.93
2017-09-20T00:04:55.038Z,19.23
2017-09-20T00:07:22.505Z,19.60
2017-09-20T00:09:50.906Z,18.20
2017-09-20T00:12:18.373Z,17.73
2017-09-20T00:14:45.874Z,18.90
2017-09-20T00:17:13.393Z,16.87
2017-09-20T00:19:41.666Z,18.73
2017-09-20T00:22:10.018Z,18.97
2017-09-20T00:24:37.493Z,18.33
2017-09-20T00:27:05.179Z,17.70
2017-09-20T00:29:32.678Z,18.40
2017-09-20T00:32:00.206Z,19.23
2017-09-20T00:34:28.427Z,20.20
2017-09-20T00:36:55.938Z,18.90
2017-09-20T00:39:24.256Z,19.43
2017-09-20T00:41:51.742Z,20.60
2017-09-20T00:44:19.217Z,19.50
2017-09-20T00:46:46.988Z,19.00
2017-09-20T00:49:14.783Z,20.07
2017-09-20T00:51:42.342Z,20.20
2017-09-20T00:54:09.962Z,21.27
2017-09-20T00:56:37.425Z,21.90
2017-09-20T00:59:05.831Z,22.63
2017-09-20T01:01:33.304Z,22.40
2017-09-20T01:04:00.794Z,22.03
2017-09-20T01:06:28.254Z,21.40
2017-09-20T01:08:55.781Z,20.60
2017-09-20T01:11:23.263Z,21.10
2017-09-20T01:13:50.823Z,20.53
2017-09-20T01:16:18.297Z,20.87
2017-09-20T01:18:45.765Z,19.30
2017-09-20T01:24:13.935Z,19.60
2017-09-20T01:26:41.484Z,19.50
2017-09-20T01:29:09.050Z,19.07
2017-09-20T01:31:36.545Z,20.37
2017-09-20T01:34:04.046Z,18.53
2017-09-20T01:36:31.501Z,18.23
2017-09-20T01:38:58.977Z,18.17
2017-09-20T01:41:26.511Z,18.33
2017-09-20T01:43:53.994Z,18.43
2017-09-20T01:46:21.477Z,18.90
2017-09-20T01:48:49.097Z,17.07
2017-09-20T01:51:16.637Z,17.60
2017-09-20T01:53:44.093Z,17.80
2017-09-20T01:56:11.586Z,17.20
2017-09-20T01:58:40.159Z,16.23
2017-09-20T02:01:07.642Z,17.50
2017-09-20T02:03:35.113Z,17.50
2017-09-20T02:06:02.596Z,18.57
2017-09-20T02:08:30.050Z,17.00
2017-09-20T02:10:57.562Z,17.50
2017-09-20T02:13:25.029Z,17.40
2017-09-20T02:15:52.489Z,17.10
2017-09-20T02:18:19.991Z,17.17
2017-09-20T02:20:47.457Z,16.63
2017-09-20T02:23:15.678Z,17.87
2017-09-20T02:25:43.241Z,16.17
2017-09-20T02:28:10.730Z,17.10
2017-09-20T02:30:38.199Z,18.10
2017-09-20T02:33:05.690Z,18.10
2017-09-20T02:35:33.160Z,16.13
2017-09-20T02:38:00.718Z,16.50
2017-09-20T02:40:28.216Z,16.10
2017-09-20T02:42:55.693Z,15.97
2017-09-20T02:45:23.178Z,16.50
2017-09-20T02:47:50.645Z,15.30
2017-09-20T02:50:18.209Z,16.83
2017-09-20T02:52:45.698Z,15.60
2017-09-20T02:55:13.319Z,15.87
2017-09-20T02:57:40.826Z,14.20
2017-09-20T03:00:08.391Z,14.50
2017-09-20T03:02:35.889Z,13.57
2017-09-20T03:05:03.392Z,14.70
2017-09-20T03:07:30.874Z,14.53
2017-09-20T03:09:58.362Z,14.40
2017-09-20T03:12:26.603Z,13.90
2017-09-20T03:14:54.090Z,14.60
2017-09-20T03:17:21.562Z,13.53
2017-09-20T03:19:49.144Z,12.47
2017-09-20T03:22:16.638Z,12.10
2017-09-20T03:24:44.117Z,12.13
2017-09-20T03:27:11.577Z,11.70
2017-09-20T03:29:39.087Z,12.67
2017-09-20T03:32:06.586Z,12.50
2017-09-20T03:34:34.075Z,10.90
2017-09-20T03:37:01.561Z,11.90
2017-09-20T03:39:29.028Z,12.17
2017-09-20T03:41:56.489Z,12.17
2017-09-20T03:44:24.094Z,11.97
2017-09-20T03:46:52.348Z,12.63
2017-09-20T03:49:20.431Z,11.37
2017-09-20T03:51:47.962Z,12.03
2017-09-20T03:54:15.453Z,11.57
2017-09-20T03:56:42.935Z,12.33
2017-09-20T03:59:10.449Z,12.50
2017-09-20T04:01:37.919Z,12.20
2017-09-20T04:04:05.409Z,11.43
2017-09-20T04:06:33.685Z,12.23
2017-09-20T04:09:01.914Z,11.77
2017-09-20T04:11:29.473Z,12.23
2017-09-20T04:13:56.986Z,11.93
2017-09-20T04:16:24.494Z,12.23
2017-09-20T04:18:51.994Z,11.60
2017-09-20T04:21:20.225Z,11.97
2017-09-20T04:23:47.726Z,11.37
2017-09-20T04:26:15.994Z,12.43
2017-09-20T04:28:44.262Z,12.30
2017-09-20T04:31:11.754Z,11.30
2017-09-20T04:33:40.402Z,11.48
2017-09-20T04:36:09.624Z,11.30
2017-09-20T04:38:37.105Z,11.93
2017-09-20T04:41:04.598Z,11.87
2017-09-20T04:43:32.068Z,12.77
2017-09-20T04:45:59.567Z,12.60
2017-09-20T04:48:27.832Z,12.13
2017-09-20T04:50:56.086Z,12.03
2017-09-20T04:53:23.554Z,11.97
2017-09-20T04:55:51.817Z,12.20
2017-09-20T04:58:19.306Z,12.87
2017-09-20T05:00:47.559Z,13.70
2017-09-20T05:03:15.101Z,12.80
2017-09-20T05:05:42.588Z,13.20
2017-09-20T05:08:11.145Z,12.55
2017-09-20T05:10:38.665Z,14.30
2017-09-20T05:13:06.137Z,13.07
2017-09-20T05:15:33.606Z,14.07
2017-09-20T05:18:01.109Z,15.13
2017-09-20T05:20:29.377Z,15.67
2017-09-20T05:22:56.874Z,14.70
2017-09-20T05:25:24.381Z,14.20
2017-09-20T05:27:51.858Z,14.83
2017-09-20T05:30:19.322Z,15.73
2017-09-20T05:32:47.604Z,15.37
2017-09-20T05:35:15.061Z,15.43
2017-09-20T05:37:42.585Z,17.40
2017-09-20T05:40:11.014Z,15.50
2017-09-20T05:42:38.488Z,16.73
2017-09-20T05:45:05.969Z,16.90
2017-09-20T05:47:33.509Z,16.90
2017-09-20T05:50:01.007Z,15.27
2017-09-20T05:52:29.225Z,16.87
2017-09-20T05:54:56.685Z,16.80
2017-09-20T05:57:24.165Z,17.10
2017-09-20T05:59:51.622Z,17.93
2017-09-20T06:02:19.083Z,17.50
2017-09-20T06:04:46.576Z,18.53
2017-09-20T06:07:14.204Z,19.10
2017-09-20T06:09:41.721Z,18.27
2017-09-20T06:12:10.013Z,18.47
2017-09-20T06:14:37.515Z,18.83
2017-09-20T06:17:04.985Z,17.93
2017-09-20T06:19:32.530Z,20.20
2017-09-20T06:21:59.981Z,19.67
2017-09-20T06:24:27.530Z,19.70
2017-09-20T06:26:55.025Z,21.80
2017-09-20T06:29:22.484Z,20.07
2017-09-20T06:31:49.962Z,19.30
2017-09-20T06:34:17.455Z,19.23
2017-09-20T06:36:44.914Z,20.40
2017-09-20T06:39:12.488Z,20.10
2017-09-20T06:41:39.990Z,19.90
2017-09-20T06:44:07.496Z,19.90
2017-09-20T06:46:34.978Z,20.60
2017-09-20T06:49:02.438Z,19.07
2017-09-20T06:51:29.973Z,19.10
2017-09-20T06:53:57.486Z,20.60
2017-09-20T06:56:24.977Z,20.27
2017-09-20T06:58:52.525Z,19.53
2017-09-20T07:01:20.777Z,17.83
2017-09-20T07:03:48.285Z,19.90
2017-09-20T07:06:15.797Z,19.57
2017-09-20T07:08:43.273Z,21.93
2017-09-20T07:11:10.778Z,21.67
2017-09-20T07:13:38.322Z,18.10
2017-09-20T07:16:05.797Z,20.40
2017-09-20T07:18:33.286Z,20.47
2017-09-20T07:21:00.824Z,20.87
2017-09-20T07:23:28.310Z,15.50
2017-09-20T07:25:55.779Z,20.70
2017-09-20T07:28:24.038Z,20.30
2017-09-20T07:30:51.499Z,19.50
2017-09-20T07:33:19.035Z,20.17
2017-09-20T07:35:46.510Z,19.17
2017-09-20T07:38:13.980Z,20.10
2017-09-20T07:40:41.490Z,17.50
2017-09-20T07:43:08.974Z,16.43
2017-09-20T07:45:36.433Z,19.37
2017-09-20T07:48:03.925Z,19.57
2017-09-20T07:50:31.386Z,18.90
2017-09-20T07:52:58.870Z,19.83
2017-09-20T07:55:26.353Z,18.07
2017-09-20T07:57:53.837Z,22.10
2017-09-20T08:00:21.314Z,19.30
2017-09-20T08:02:49.598Z,18.60
2017-09-20T08:05:17.095Z,19.67
2017-09-20T08:07:44.558Z,20.00
2017-09-20T08:10:12.067Z,18.00
2017-09-20T08:12:39.541Z,19.30
2017-09-20T08:15:07.139Z,17.93
2017-09-20T08:17:34.629Z,19.50
2017-09-20T08:20:02.090Z,19.50
2017-09-20T08:22:29.578Z,21.13
2017-09-20T08:24:57.037Z,20.93
2017-09-20T08:27:24.534Z,21.97
2017-09-20T08:29:52.052Z,18.83
2017-09-20T08:32:20.293Z,20.23
2017-09-20T08:34:47.763Z,19.63
2017-09-20T08:37:15.245Z,18.80
2017-09-20T08:39:44.406Z,19.70
2017-09-20T08:42:11.889Z,21.00
2017-09-20T08:44:40.115Z,21.30
2017-09-20T08:47:07.609Z,17.00
2017-09-20T08:49:35.078Z,20.30
2017-09-20T08:52:02.537Z,20.60
2017-09-20T08:54:30.031Z,20.20
2017-09-20T08:56:57.495Z,14.37
2017-09-20T08:59:25.059Z,18.90
2017-09-20T09:01:52.534Z,17.30
2017-09-20T09:04:20.017Z,19.00
2017-09-20T09:06:47.509Z,16.13
2017-09-20T09:09:15.868Z,16.37
2017-09-20T09:11:45.018Z,19.80
2017-09-20T09:14:12.490Z,20.47
2017-09-20T09:16:40.030Z,18.67
2017-09-20T09:19:07.526Z,21.80
2017-09-20T09:21:34.981Z,20.57
2017-09-20T09:24:02.451Z,19.20
2017-09-20T09:26:30.730Z,20.80
2017-09-20T09:28:59.049Z,24.20
2017-09-20T09:31:26.550Z,21.50
2017-09-20T09:33:54.057Z,23.87
2017-09-20T09:36:21.581Z,22.03
2017-09-20T09:38:49.074Z,24.77
2017-09-20T09:41:16.538Z,22.10
2017-09-20T09:43:44.001Z,20.20
2017-09-20T09:46:11.489Z,21.63
2017-09-20T09:48:38.970Z,22.17
2017-09-20T09:51:06.421Z,22.17
2017-09-20T09:53:33.918Z,23.30
2017-09-20T09:56:01.386Z,24.93
2017-09-20T09:58:28.878Z,23.80
2017-09-20T10:00:56.338Z,22.53
2017-09-20T10:03:23.799Z,25.97
2017-09-20T10:05:51.326Z,26.23
2017-09-20T10:08:18.805Z,23.13
2017-09-20T10:10:47.129Z,22.90
2017-09-20T10:13:16.280Z,27.17
2017-09-20T10:15:43.757Z,27.97
2017-09-20T10:18:11.242Z,25.07
2017-09-20T10:20:38.697Z,26.27
2017-09-20T10:23:06.942Z,27.30
2017-09-20T10:25:34.483Z,23.80
2017-09-20T10:28:02.021Z,24.83
2017-09-20T10:30:29.489Z,25.57
2017-09-20T10:32:56.972Z,27.40
2017-09-20T10:35:24.473Z,24.37
2017-09-20T10:37:51.945Z,26.37
2017-09-20T10:40:19.494Z,24.73
2017-09-20T10:42:47.731Z,25.13
2017-09-20T10:45:15.210Z,25.00
2017-09-20T10:47:42.691Z,24.17
2017-09-20T10:50:10.170Z,24.63
2017-09-20T10:52:37.645Z,26.30
2017-09-20T10:55:05.121Z,25.00
2017-09-20T10:57:32.581Z,25.60
2017-09-20T11:00:00.088Z,24.47
2017-09-20T11:02:27.610Z,23.23
2017-09-20T11:04:55.133Z,24.27
2017-09-20T11:07:22.609Z,26.40
2017-09-20T11:09:50.139Z,23.90
2017-09-20T11:12:17.610Z,23.73
2017-09-20T11:14:45.114Z,23.77
2017-09-20T11:17:12.619Z,23.70
2017-09-20T11:19:40.103Z,25.10
2017-09-20T11:22:07.571Z,24.00
2017-09-20T11:24:35.051Z,27.30
2017-09-20T11:27:02.571Z,21.90
2017-09-20T11:29:30.066Z,22.20
2017-09-20T11:31:57.556Z,24.40
2017-09-20T11:34:25.026Z,21.00
2017-09-20T11:36:52.509Z,24.13
2017-09-20T11:39:20.013Z,21.00
2017-09-20T11:41:48.818Z,22.83
2017-09-20T11:44:16.346Z,23.47
2017-09-20T11:46:43.848Z,22.20
2017-09-20T11:49:11.482Z,23.30
2017-09-20T11:51:38.977Z,23.23
2017-09-20T11:54:06.490Z,23.87
2017-09-20T11:56:33.965Z,22.47
2017-09-20T11:59:02.230Z,22.10
2017-09-20T12:01:30.498Z,23.10
2017-09-20T12:03:57.959Z,22.17
2017-09-20T12:06:25.422Z,25.10
2017-09-20T12:08:52.933Z,24.43
2017-09-20T12:11:20.401Z,21.40
2017-09-20T12:13:48.551Z,24.60
2017-09-20T12:16:16.025Z,23.43
2017-09-20T12:18:43.601Z,22.10
2017-09-20T12:21:11.063Z,23.10
2017-09-20T12:23:38.525Z,20.90
2017-09-20T12:26:06.009Z,20.93
2017-09-20T12:28:34.238Z,21.67
2017-09-20T12:31:01.722Z,20.67
2017-09-20T12:33:29.186Z,21.37
2017-09-20T12:35:56.651Z,18.37
2017-09-20T12:38:24.141Z,20.13
2017-09-20T12:40:51.599Z,23.00
2017-09-20T12:43:19.941Z,20.80
2017-09-20T12:45:47.415Z,20.13
2017-09-20T12:48:15.654Z,21.20
2017-09-20T12:50:43.177Z,20.60
2017-09-20T12:53:10.650Z,21.50
2017-09-20T12:55:38.126Z,21.53
2017-09-20T12:58:05.618Z,20.63
2017-09-20T13:00:33.078Z,21.10
2017-09-20T13:03:00.546Z,19.60
2017-09-20T13:05:28.847Z,19.13
2017-09-20T13:07:56.297Z,19.13
2017-09-20T13:10:23.761Z,19.80
2017-09-20T13:12:51.254Z,21.10
2017-09-20T13:15:19.659Z,17.17
2017-09-20T13:17:47.157Z,18.40
2017-09-20T13:20:14.647Z,17.87
2017-09-20T13:22:42.141Z,16.57
2017-09-20T13:25:09.603Z,17.37
2017-09-20T13:27:37.231Z,16.53
2017-09-20T13:30:04.720Z,16.13
2017-09-20T13:32:32.986Z,16.45
2017-09-20T13:35:00.441Z,18.10
2017-09-20T13:37:27.996Z,17.70
2017-09-20T13:39:55.487Z,18.43
2017-09-20T13:42:22.991Z,19.13
2017-09-20T13:44:50.497Z,19.70
2017-09-20T13:47:18.017Z,18.77
2017-09-20T13:49:45.509Z,17.17
2017-09-20T13:52:12.985Z,14.40
2017-09-20T13:54:41.229Z,17.53
2017-09-20T13:57:08.719Z,16.93
2017-09-20T13:59:36.183Z,16.50
2017-09-20T14:02:03.678Z,15.33
2017-09-20T14:04:31.133Z,15.57
2017-09-20T14:06:58.594Z,15.60
2017-09-20T14:09:26.136Z,15.93
2017-09-20T14:11:53.625Z,14.70
2017-09-20T14:14:21.087Z,15.30
2017-09-20T14:16:48.541Z,15.10
2017-09-20T14:19:16.023Z,14.37
2017-09-20T14:21:43.508Z,13.70
2017-09-20T14:24:10.987Z,13.67
2017-09-20T14:26:38.488Z,12.70
2017-09-20T14:29:06.047Z,11.60
2017-09-20T14:31:33.513Z,12.90
2017-09-20T14:34:00.977Z,12.87
2017-09-20T14:36:28.519Z,11.97
2017-09-20T14:38:55.994Z,11.73
2017-09-20T14:41:23.478Z,11.00
2017-09-20T14:43:51.366Z,11.13
2017-09-20T14:46:18.830Z,10.30
2017-09-20T14:48:46.298Z,9.80
2017-09-20T14:51:13.844Z,10.03
2017-09-20T14:53:41.333Z,12.60
2017-09-20T14:56:08.798Z,11.70
2017-09-20T14:58:37.025Z,10.37
2017-09-20T15:01:04.516Z,10.30
2017-09-20T15:03:32.003Z,11.50
2017-09-20T15:05:59.461Z,10.90
2017-09-20T15:08:26.985Z,11.90
2017-09-20T15:10:54.450Z,11.17
2017-09-20T15:13:21.914Z,11.80
2017-09-20T15:15:49.390Z,11.13
2017-09-20T15:18:16.875Z,12.20
2017-09-20T15:20:45.107Z,11.80
2017-09-20T15:23:12.565Z,14.03
2017-09-20T15:25:40.058Z,12.77
2017-09-20T15:28:07.526Z,14.40
2017-09-20T15:30:35.797Z,14.67
2017-09-20T15:33:04.102Z,13.77
2017-09-20T15:35:31.581Z,13.67
2017-09-20T15:37:59.065Z,14.90
2017-09-20T15:40:26.624Z,14.33
2017-09-20T15:42:54.102Z,14.80
2017-09-20T15:45:22.526Z,15.77
2017-09-20T15:47:50.033Z,15.93
2017-09-20T15:50:17.556Z,15.37
2017-09-20T15:52:45.126Z,13.53
2017-09-20T15:55:12.662Z,15.03
2017-09-20T15:57:40.188Z,16.67
2017-09-20T16:00:08.488Z,15.90
2017-09-20T16:02:35.971Z,14.67
2017-09-20T16:05:03.445Z,15.03
2017-09-20T16:07:30.943Z,13.43
2017-09-20T16:09:58.506Z,12.50
2017-09-20T16:12:26.745Z,9.70
2017-09-20T16:14:54.214Z,10.40
2017-09-20T16:17:23.417Z,9.77
2017-09-20T16:19:50.875Z,10.23
2017-09-20T16:22:18.342Z,10.10
2017-09-20T16:24:45.829Z,9.30
2017-09-20T16:27:13.307Z,10.13
2017-09-20T16:29:40.835Z,10.80
2017-09-20T16:32:09.085Z,10.27
2017-09-20T16:34:36.585Z,10.30
2017-09-20T16:37:04.077Z,10.20
2017-09-20T16:39:31.533Z,9.50
2017-09-20T16:41:59.319Z,9.53
2017-09-20T16:44:27.120Z,9.33
2017-09-20T16:46:54.622Z,11.82
2017-09-20T16:49:22.105Z,9.80
2017-09-20T16:51:49.622Z,10.63
2017-09-20T16:54:17.117Z,10.80
2017-09-20T16:56:44.810Z,15.03
2017-09-20T16:59:12.374Z,10.70
2017-09-20T17:01:40.604Z,11.40
2017-09-20T17:04:08.090Z,11.90
2017-09-20T17:06:35.567Z,11.77
2017-09-20T17:09:03.788Z,11.50
2017-09-20T17:11:31.278Z,13.70
2017-09-20T17:13:58.764Z,12.93
2017-09-20T17:16:26.249Z,11.67
2017-09-20T17:18:54.282Z,12.73
2017-09-20T17:21:22.534Z,12.40
2017-09-20T17:23:50.025Z,11.23
2017-09-20T17:26:18.283Z,11.53
2017-09-20T17:28:45.762Z,11.33
2017-09-20T17:31:14.022Z,12.00
2017-09-20T17:33:42.293Z,11.50
2017-09-20T17:36:09.883Z,12.23
2017-09-20T17:38:37.364Z,11.50
2017-09-20T17:41:04.834Z,14.03
2017-09-20T17:43:32.377Z,16.23
2017-09-20T17:45:59.903Z,13.77
2017-09-20T17:48:27.425Z,13.20
2017-09-20T17:50:55.038Z,12.97
2017-09-20T17:53:22.627Z,13.67
2017-09-20T17:55:50.126Z,12.93
2017-09-20T17:58:17.672Z,13.10
2017-09-20T18:00:46.143Z,13.83
2017-09-20T18:03:13.727Z,13.20
2017-09-20T18:05:41.424Z,13.10
2017-09-20T18:08:09.665Z,12.27
2017-09-20T18:10:37.269Z,14.27
2017-09-20T18:13:04.777Z,13.43
2017-09-20T18:15:32.250Z,13.50
2017-09-20T18:17:59.737Z,13.17
2017-09-20T18:20:27.997Z,12.47
2017-09-20T18:22:56.325Z,12.77
2017-09-20T18:25:23.837Z,14.27
2017-09-20T18:27:51.301Z,14.90
2017-09-20T18:30:18.783Z,13.30
2017-09-20T18:32:46.298Z,14.13
2017-09-20T18:35:13.754Z,13.33
2017-09-20T18:37:41.215Z,14.27
2017-09-20T18:40:08.714Z,14.60
2017-09-20T18:42:36.179Z,13.87
2017-09-20T18:45:03.648Z,13.40
2017-09-20T18:47:31.138Z,14.17
2017-09-20T18:49:58.605Z,14.77
2017-09-20T18:52:26.105Z,14.30
2017-09-20T18:54:53.564Z,15.43
2017-09-20T18:57:21.078Z,15.90
2017-09-20T18:59:48.562Z,16.27
2017-09-20T19:02:16.785Z,16.30
2017-09-20T19:04:44.277Z,17.00
2017-09-20T19:07:11.737Z,16.40
2017-09-20T19:09:39.217Z,15.03
2017-09-20T19:12:07.478Z,16.83
2017-09-20T19:14:35.716Z,17.27
2017-09-20T19:17:03.182Z,16.97
2017-09-20T19:19:31.524Z,17.27
2017-09-20T19:21:59.021Z,18.00
2017-09-20T19:24:26.617Z,18.87
2017-09-20T19:26:54.845Z,17.47
2017-09-20T19:29:22.313Z,18.67
2017-09-20T19:31:49.817Z,18.20
2017-09-20T19:34:18.066Z,18.13
2017-09-20T19:36:45.624Z,17.30
2017-09-20T19:39:13.174Z,18.63
2017-09-20T19:41:41.445Z,18.50
2017-09-20T19:44:08.925Z,19.57
2017-09-20T19:46:36.381Z,19.60
2017-09-20T19:49:03.937Z,19.37
2017-09-20T19:51:31.423Z,20.33
2017-09-20T19:53:59.652Z,19.43
2017-09-20T19:56:27.275Z,19.33
2017-09-20T19:58:54.778Z,20.47
2017-09-20T20:01:22.367Z,20.20
2017-09-20T20:03:49.899Z,19.20
2017-09-20T20:06:17.940Z,18.70
2017-09-20T20:08:46.151Z,19.53
2017-09-20T20:11:13.709Z,20.73
2017-09-20T20:13:41.201Z,20.93
2017-09-20T20:16:08.766Z,18.60
2017-09-20T20:18:37.055Z,20.23
2017-09-20T20:21:04.546Z,19.57
2017-09-20T20:23:32.007Z,19.60
2017-09-20T20:25:59.461Z,19.37
2017-09-20T20:28:27.353Z,20.30
2017-09-20T20:30:54.814Z,21.20
2017-09-20T20:33:22.278Z,20.47
2017-09-20T20:35:49.769Z,20.00
2017-09-20T20:38:17.278Z,17.93
2017-09-20T20:40:44.754Z,18.40
2017-09-20T20:43:12.250Z,18.00
2017-09-20T20:45:39.764Z,19.45
2017-09-20T20:48:07.314Z,20.30
2017-09-20T20:50:34.797Z,19.27
2017-09-20T20:53:02.329Z,18.85
2017-09-20T20:55:29.800Z,18.23
2017-09-20T20:57:58.683Z,18.98
2017-09-20T21:00:26.203Z,19.87
2017-09-20T21:02:53.696Z,18.20
2017-09-20T21:05:21.162Z,17.57
2017-09-20T21:07:48.655Z,19.13
2017-09-20T21:10:16.940Z,19.70
2017-09-20T21:12:44.445Z,18.37
2017-09-20T21:15:11.921Z,19.30
2017-09-20T21:17:39.378Z,19.13
2017-09-20T21:20:06.864Z,18.77
2017-09-20T21:22:35.116Z,17.50
2017-09-20T21:25:02.581Z,18.87
2017-09-20T21:27:30.841Z,17.13
2017-09-20T21:29:58.415Z,18.27
2017-09-20T21:32:25.918Z,18.57
2017-09-20T21:34:53.370Z,17.20
2017-09-20T21:37:20.850Z,17.57
2017-09-20T21:39:48.352Z,18.50
2017-09-20T21:42:15.805Z,17.97
2017-09-20T21:44:43.297Z,18.97
2017-09-20T21:47:10.749Z,18.23
2017-09-20T21:49:38.238Z,19.70
2017-09-20T21:52:06.242Z,18.17
2017-09-20T21:54:33.725Z,18.33
2017-09-20T21:57:01.209Z,19.40
2017-09-20T21:59:28.869Z,18.20
2017-09-20T22:01:56.371Z,19.20
2017-09-20T22:04:23.872Z,18.33
2017-09-20T22:06:52.111Z,18.90
2017-09-20T22:09:19.637Z,18.67
2017-09-20T22:11:47.091Z,19.00
2017-09-20T22:14:14.557Z,19.17
2017-09-20T22:16:53.755Z,18.37
2017-09-20T22:19:33.937Z,18.50
2017-09-20T22:22:13.180Z,19.97
2017-09-20T22:24:52.396Z,19.63
2017-09-20T22:27:30.809Z,19.67
2017-09-20T22:29:59.965Z,19.47
2017-09-20T22:32:27.462Z,19.70
2017-09-20T22:34:54.931Z,17.47
2017-09-20T22:37:22.410Z,19.67
2017-09-20T22:39:50.100Z,18.93
2017-09-20T22:42:17.566Z,19.80
2017-09-20T22:44:45.041Z,19.30
2017-09-20T22:47:13.287Z,18.57
2017-09-20T22:49:40.746Z,20.63
2017-09-20T22:52:08.297Z,20.70
2017-09-20T22:54:35.770Z,20.70
2017-09-20T22:57:03.234Z,20.60
2017-09-20T22:59:30.719Z,18.00
2017-09-20T23:01:58.187Z,18.97
2017-09-20T23:04:26.433Z,19.77
2017-09-20T23:06:53.920Z,19.80
2017-09-20T23:09:21.492Z,18.27
2017-09-20T23:11:48.956Z,18.30
2017-09-20T23:14:16.416Z,17.80
2017-09-20T23:16:43.910Z,16.10
2017-09-20T23:19:11.368Z,18.50
2017-09-20T23:21:38.823Z,16.50
2017-09-20T23:24:06.318Z,18.03
2017-09-20T23:26:33.784Z,16.80
2017-09-20T23:29:01.275Z,17.93
2017-09-20T23:31:28.758Z,15.40
2017-09-20T23:33:57.034Z,16.00
2017-09-20T23:36:24.535Z,17.20
2017-09-20T23:38:52.814Z,16.33
2017-09-20T23:41:20.292Z,16.33
2017-09-20T23:43:47.807Z,16.50
2017-09-20T23:46:15.267Z,15.47
2017-09-20T23:48:42.729Z,15.00
2017-09-20T23:51:10.227Z,16.37
2017-09-20T23:53:37.710Z,15.00
2017-09-20T23:56:05.174Z,15.40
2017-09-20T23:58:32.658Z,15.33
